Time;durP1;ratioP1;P1;durP2;ratioP2;P2;SDS_P1;SDS_P2;PMS_P1;PMS_P2;Temp;Humidity;BMP_temperature;BMP_pressure;BME280_temperature;BME280_humidity;BME280_pressure;Samples;Min_cycle;Max_cycle;Signal;HPM_P1;HPM_P2
2020/12/21 00:00:39;;;;;;;13.50;11.25;;;8.10;96.70;;;;;;4945387;29;20533;-85
2020/12/21 00:03:16;;;;;;;16.65;11.05;;;8.00;96.70;;;;;;4931484;29;20047;-86
2020/12/21 00:05:47;;;;;;;14.18;11.13;;;7.90;96.70;;;;;;4945667;29;20040;-84
2020/12/21 00:08:15;;;;;;;13.95;11.35;;;8.00;96.70;;;;;;4945296;28;20044;-86
2020/12/21 00:10:42;;;;;;;14.35;11.45;;;8.00;96.70;;;;;;4946115;29;20046;-86
2020/12/21 00:13:09;;;;;;;13.82;11.23;;;8.00;96.70;;;;;;4930990;29;20054;-85
2020/12/21 00:15:36;;;;;;;16.10;11.63;;;8.00;96.70;;;;;;4944490;29;20099;-86
2020/12/21 00:18:04;;;;;;;14.20;11.52;;;8.00;96.70;;;;;;4945676;28;20032;-86
2020/12/21 00:20:32;;;;;;;15.38;11.30;;;7.90;96.70;;;;;;4929393;28;20106;-82
2020/12/21 00:22:59;;;;;;;13.82;11.23;;;7.80;96.70;;;;;;4944375;28;20119;-85
2020/12/21 00:25:27;;;;;;;13.38;11.02;;;7.80;96.70;;;;;;4946182;28;20040;-86
2020/12/21 00:27:54;;;;;;;15.80;11.68;;;7.80;96.70;;;;;;4943488;28;20118;-86
2020/12/21 00:30:21;;;;;;;18.27;13.02;;;7.80;96.70;;;;;;4945496;29;20474;-85
2020/12/21 00:32:48;;;;;;;14.95;11.98;;;7.90;96.70;;;;;;4945433;29;20036;-85
2020/12/21 00:35:16;;;;;;;18.17;12.15;;;7.90;96.70;;;;;;4945784;29;20122;-82
2020/12/21 00:37:44;;;;;;;15.25;11.48;;;7.90;96.70;;;;;;4945264;28;20034;-86
2020/12/21 00:40:11;;;;;;;14.48;10.63;;;7.80;96.70;;;;;;4952376;28;20209;-85
2020/12/21 00:42:38;;;;;;;13.32;10.27;;;7.80;96.70;;;;;;4944783;28;20055;-85
2020/12/21 00:45:06;;;;;;;14.20;10.85;;;7.70;96.70;;;;;;4945388;29;20488;-86
2020/12/21 00:47:33;;;;;;;17.77;12.30;;;7.70;96.70;;;;;;4926723;29;20581;-86
2020/12/21 00:50:01;;;;;;;18.42;12.27;;;7.70;96.70;;;;;;4947153;29;20054;-86
2020/12/21 00:52:28;;;;;;;15.23;11.50;;;7.70;96.70;;;;;;4944010;29;20608;-86
2020/12/21 00:54:57;;;;;;;12.35;10.10;;;7.70;96.70;;;;;;4928281;29;20066;-85
2020/12/21 00:57:24;;;;;;;12.38;9.75;;;7.70;96.70;;;;;;4944071;29;20323;-85
2020/12/21 00:59:51;;;;;;;13.48;10.07;;;7.70;96.70;;;;;;4946031;28;20047;-86
2020/12/21 01:02:18;;;;;;;12.63;9.50;;;7.70;96.70;;;;;;4943606;29;20067;-85
2020/12/21 01:04:45;;;;;;;11.55;9.50;;;7.80;96.70;;;;;;4930817;28;20039;-86
2020/12/21 01:07:12;;;;;;;10.85;8.85;;;7.70;96.70;;;;;;4940611;28;20037;-85
2020/12/21 01:09:39;;;;;;;11.43;8.65;;;7.70;96.70;;;;;;4930000;29;20051;-86
2020/12/21 01:12:08;;;;;;;11.07;8.43;;;7.60;96.70;;;;;;4944325;29;20110;-86
2020/12/21 01:14:35;;;;;;;10.85;8.55;;;7.60;96.70;;;;;;4943931;28;20058;-85
2020/12/21 01:17:02;;;;;;;11.63;8.35;;;7.50;96.70;;;;;;4943325;28;20364;-87
2020/12/21 01:19:29;;;;;;;10.68;8.15;;;7.50;96.70;;;;;;4966119;28;20066;-86
2020/12/21 01:21:57;;;;;;;9.77;8.18;;;7.60;96.70;;;;;;4944169;28;20063;-85
2020/12/21 01:24:24;;;;;;;9.60;8.02;;;7.50;96.70;;;;;;4944491;28;20043;-86
2020/12/21 01:26:51;;;;;;;11.27;8.63;;;7.50;96.70;;;;;;4928735;29;20043;-86
2020/12/21 01:29:19;;;;;;;12.70;9.38;;;7.50;96.70;;;;;;4940586;29;20130;-85
2020/12/21 01:31:47;;;;;;;12.48;9.65;;;7.40;96.70;;;;;;4944742;29;20520;-86
2020/12/21 01:34:14;;;;;;;11.85;9.50;;;7.30;96.70;;;;;;4927664;29;20471;-86
2020/12/21 01:36:42;;;;;;;10.88;9.18;;;7.30;96.70;;;;;;4957847;28;20482;-87
2020/12/21 01:39:09;;;;;;;12.57;9.35;;;7.20;96.70;;;;;;4944888;28;20054;-86
2020/12/21 01:41:36;;;;;;;11.50;9.98;;;7.20;96.70;;;;;;4945121;28;20050;-85
2020/12/21 01:44:04;;;;;;;13.55;9.68;;;7.20;96.70;;;;;;4945420;28;20114;-86
2020/12/21 01:46:32;;;;;;;14.60;11.23;;;7.20;96.70;;;;;;4945039;29;20136;-86
2020/12/21 01:48:59;;;;;;;12.98;10.50;;;7.20;96.70;;;;;;4943987;28;20078;-86
2020/12/21 01:51:28;;;;;;;15.15;11.00;;;7.30;96.70;;;;;;4937820;28;20081;-85
2020/12/21 01:53:55;;;;;;;12.85;9.88;;;7.30;96.70;;;;;;4943703;29;20051;-84
2020/12/21 01:56:23;;;;;;;12.73;9.75;;;7.30;96.70;;;;;;4942554;29;20047;-86
2020/12/21 01:58:50;;;;;;;14.95;10.30;;;7.20;96.70;;;;;;4942624;28;20526;-85
2020/12/21 02:01:19;;;;;;;14.57;10.52;;;7.20;96.70;;;;;;4945523;28;20047;-86
2020/12/21 02:03:48;;;;;;;13.13;9.77;;;7.20;96.70;;;;;;4923442;29;20063;-86
2020/12/21 02:06:17;;;;;;;13.15;9.85;;;7.20;96.70;;;;;;4926368;29;20046;-87
2020/12/21 02:08:45;;;;;;;12.88;10.00;;;7.20;96.70;;;;;;4926153;28;20043;-83
2020/12/21 02:11:12;;;;;;;18.25;10.02;;;7.10;96.70;;;;;;4927753;29;20040;-85
2020/12/21 02:13:39;;;;;;;13.00;10.23;;;7.20;96.70;;;;;;4945161;29;20047;-86
2020/12/21 02:16:11;;;;;;;12.85;9.85;;;7.30;96.70;;;;;;4929388;29;20454;-84
2020/12/21 02:18:38;;;;;;;11.60;10.05;;;7.30;96.70;;;;;;4940969;29;20039;-85
2020/12/21 02:21:06;;;;;;;13.60;10.68;;;7.20;96.70;;;;;;4951059;28;20484;-86
2020/12/21 02:23:33;;;;;;;12.50;9.43;;;7.20;96.70;;;;;;4946742;28;20051;-86
2020/12/21 02:26:00;;;;;;;12.80;9.70;;;7.10;96.70;;;;;;4960340;28;20055;-85
2020/12/21 02:28:27;;;;;;;12.95;9.40;;;7.10;96.70;;;;;;4961595;28;20039;-86
2020/12/21 02:30:54;;;;;;;12.40;9.85;;;7.10;96.70;;;;;;4932190;29;20051;-85
2020/12/21 02:33:21;;;;;;;12.23;9.57;;;7.20;96.70;;;;;;4951856;28;20421;-85
2020/12/21 02:35:48;;;;;;;11.27;9.43;;;7.20;96.70;;;;;;4936241;28;20497;-86
2020/12/21 02:38:16;;;;;;;13.80;9.57;;;7.10;96.70;;;;;;4952407;28;20103;-86
2020/12/21 02:40:44;;;;;;;11.38;9.18;;;7.10;96.70;;;;;;4948163;29;20069;-85
2020/12/21 02:43:19;;;;;;;12.57;9.65;;;7.20;96.70;;;;;;4943657;28;20052;-86
2020/12/21 02:45:46;;;;;;;13.10;10.05;;;7.20;96.70;;;;;;4946367;28;20118;-86
2020/12/21 02:48:14;;;;;;;12.35;10.00;;;7.10;96.70;;;;;;4954763;28;20158;-86
2020/12/21 02:50:42;;;;;;;12.00;9.60;;;7.00;96.70;;;;;;4934751;28;20505;-85
2020/12/21 02:53:09;;;;;;;13.20;10.00;;;7.00;96.70;;;;;;4945155;28;20051;-85
2020/12/21 02:55:37;;;;;;;13.30;9.85;;;7.00;96.70;;;;;;4947965;28;20042;-86
2020/12/21 02:58:05;;;;;;;13.15;10.52;;;7.00;96.70;;;;;;4942541;29;20137;-85
2020/12/21 03:00:34;;;;;;;14.50;10.05;;;6.90;96.70;;;;;;4935050;28;20540;-85
2020/12/21 03:03:02;;;;;;;13.73;9.77;;;6.90;96.70;;;;;;4946540;28;20153;-85
2020/12/21 03:05:29;;;;;;;12.18;9.80;;;6.90;96.70;;;;;;4929811;28;20068;-85
2020/12/21 03:07:57;;;;;;;11.43;9.63;;;7.00;96.70;;;;;;4953332;28;20049;-85
2020/12/21 03:10:24;;;;;;;11.38;9.50;;;7.00;96.70;;;;;;4933756;28;20053;-84
2020/12/21 03:12:52;;;;;;;12.60;10.18;;;6.90;96.70;;;;;;4960614;28;20039;-85
2020/12/21 03:15:19;;;;;;;11.90;9.25;;;6.90;96.70;;;;;;4941845;28;20059;-85
2020/12/21 03:17:47;;;;;;;13.20;10.25;;;6.90;96.70;;;;;;4951120;28;20506;-86
2020/12/21 03:20:14;;;;;;;12.77;10.52;;;6.90;96.70;;;;;;4932908;29;20047;-85
2020/12/21 03:22:42;;;;;;;11.25;10.05;;;6.90;96.70;;;;;;4943836;28;20039;-86
2020/12/21 03:25:09;;;;;;;15.45;9.73;;;7.00;96.70;;;;;;4948684;28;20461;-86
2020/12/21 03:27:36;;;;;;;14.98;9.65;;;7.00;96.70;;;;;;4945974;29;20611;-86
2020/12/21 03:30:05;;;;;;;10.95;8.70;;;7.00;96.70;;;;;;4947095;28;20047;-85
2020/12/21 03:32:32;;;;;;;12.35;9.15;;;7.00;96.70;;;;;;4951227;28;20047;-86
2020/12/21 03:35:00;;;;;;;11.43;9.05;;;7.00;96.70;;;;;;4948524;28;20863;-86
2020/12/21 03:37:32;;;;;;;12.48;8.65;;;6.90;96.70;;;;;;4946999;28;20049;-85
2020/12/21 03:39:59;;;;;;;10.93;8.45;;;7.00;96.70;;;;;;4951820;28;20043;-85
2020/12/21 03:42:26;;;;;;;11.55;9.52;;;6.90;96.70;;;;;;4947327;28;20430;-85
2020/12/21 03:44:53;;;;;;;10.73;8.77;;;6.80;96.70;;;;;;4963665;28;20043;-86
2020/12/21 03:47:21;;;;;;;12.75;9.15;;;6.70;96.70;;;;;;4947619;28;20525;-85
2020/12/21 03:49:49;;;;;;;10.93;8.48;;;6.70;96.70;;;;;;4945309;28;20051;-86
2020/12/21 03:52:16;;;;;;;9.82;8.27;;;6.70;96.70;;;;;;4930976;29;20509;-85
2020/12/21 03:54:43;;;;;;;10.50;8.00;;;6.70;96.70;;;;;;4952005;28;20146;-86
2020/12/21 03:57:10;;;;;;;9.43;7.22;;;6.70;96.70;;;;;;4946839;28;20047;-85
2020/12/21 03:59:38;;;;;;;9.60;7.60;;;6.60;96.70;;;;;;4944577;29;20141;-82
2020/12/21 04:02:05;;;;;;;9.95;8.18;;;6.60;96.70;;;;;;4944997;28;20052;-81
2020/12/21 04:04:33;;;;;;;8.82;7.65;;;6.60;96.70;;;;;;4932823;28;20600;-82
2020/12/21 04:07:00;;;;;;;10.07;7.90;;;6.70;96.70;;;;;;4940893;28;20600;-81
2020/12/21 04:09:27;;;;;;;9.52;7.82;;;6.70;96.70;;;;;;4944612;28;20382;-82
2020/12/21 04:11:54;;;;;;;9.77;7.07;;;6.70;96.70;;;;;;4960499;28;20045;-82
2020/12/21 04:14:22;;;;;;;9.35;8.23;;;6.60;96.70;;;;;;4948740;28;20122;-81
2020/12/21 04:16:49;;;;;;;9.80;8.00;;;6.60;96.70;;;;;;4944854;29;20050;-82
2020/12/21 04:19:16;;;;;;;10.63;8.07;;;6.60;96.70;;;;;;4948270;28;20334;-82
2020/12/21 04:21:44;;;;;;;9.15;7.90;;;6.50;96.70;;;;;;4945757;28;20067;-81
2020/12/21 04:24:11;;;;;;;9.20;8.00;;;6.50;96.70;;;;;;4946363;28;20048;-81
2020/12/21 04:26:38;;;;;;;9.18;7.53;;;6.40;96.70;;;;;;4930169;29;20494;-81
2020/12/21 04:29:05;;;;;;;11.82;8.85;;;6.40;96.70;;;;;;4945397;28;20516;-82
2020/12/21 04:31:37;;;;;;;9.20;7.50;;;6.40;96.70;;;;;;4945267;29;20112;-83
2020/12/21 04:34:08;;;;;;;9.68;7.40;;;6.40;96.70;;;;;;4982348;23;20064;-82
2020/12/21 04:36:36;;;;;;;9.68;7.95;;;6.50;96.70;;;;;;4883187;29;20095;-86
2020/12/21 04:39:05;;;;;;;9.93;7.80;;;6.50;96.70;;;;;;4906788;29;20048;-87
2020/12/21 04:41:32;;;;;;;8.57;7.65;;;6.40;96.70;;;;;;4939484;28;20062;-86
2020/12/21 04:44:00;;;;;;;10.30;8.52;;;6.40;96.70;;;;;;4909349;29;20055;-85
2020/12/21 04:46:28;;;;;;;10.25;8.10;;;6.50;96.70;;;;;;4907999;29;20582;-87
2020/12/21 04:48:58;;;;;;;9.90;7.47;;;6.50;96.70;;;;;;4937736;28;20392;-87
2020/12/21 04:51:33;;;;;;;9.02;8.02;;;6.50;96.70;;;;;;4904080;29;20052;-85
2020/12/21 04:54:01;;;;;;;9.98;8.07;;;6.40;96.70;;;;;;4918737;29;20044;-85
2020/12/21 04:56:30;;;;;;;12.07;8.00;;;6.40;96.70;;;;;;4918810;29;20083;-86
2020/12/21 04:58:59;;;;;;;10.10;7.75;;;6.30;96.70;;;;;;4906700;29;20048;-87
2020/12/21 05:01:26;;;;;;;10.82;7.38;;;6.20;96.70;;;;;;4908409;29;20047;-87
2020/12/21 05:03:53;;;;;;;10.32;7.95;;;6.20;96.70;;;;;;4916512;29;20050;-87
2020/12/21 05:06:21;;;;;;;9.60;7.65;;;6.20;96.70;;;;;;4906745;29;20044;-86
2020/12/21 05:09:00;;;;;;;9.18;7.10;;;6.20;96.70;;;;;;4922547;29;20108;-86
2020/12/21 05:11:28;;;;;;;10.35;7.53;;;6.20;96.70;;;;;;4938195;28;20040;-86
2020/12/21 05:14:06;;;;;;;10.88;7.80;;;6.20;96.70;;;;;;4902591;29;20047;-87
2020/12/21 05:16:33;;;;;;;11.00;7.82;;;6.30;96.70;;;;;;4922476;29;20044;-86
2020/12/21 05:19:00;;;;;;;8.18;7.05;;;6.30;96.70;;;;;;4920892;29;20432;-86
2020/12/21 05:21:30;;;;;;;11.48;8.45;;;6.30;96.70;;;;;;4904795;29;20056;-86
2020/12/21 05:23:58;;;;;;;11.80;7.97;;;6.30;96.70;;;;;;4911365;29;20095;-84
2020/12/21 05:26:28;;;;;;;11.27;7.82;;;6.30;96.70;;;;;;4937915;29;20047;-85
2020/12/21 05:28:56;;;;;;;9.98;8.20;;;6.30;96.70;;;;;;4907189;29;20143;-87
2020/12/21 05:31:25;;;;;;;11.35;8.07;;;6.30;96.70;;;;;;4920863;29;20036;-86
2020/12/21 05:33:52;;;;;;;9.38;7.25;;;6.40;96.70;;;;;;4906750;29;20055;-87
2020/12/21 05:36:25;;;;;;;11.18;7.75;;;6.40;96.70;;;;;;4936116;28;20123;-86
2020/12/21 05:38:56;;;;;;;9.93;8.70;;;6.40;96.70;;;;;;4889145;29;20044;-86
2020/12/21 05:41:24;;;;;;;12.35;8.07;;;6.40;96.70;;;;;;4937035;28;20044;-87
2020/12/21 05:43:53;;;;;;;12.07;8.57;;;6.40;96.70;;;;;;4904449;29;20040;-86
2020/12/21 05:46:23;;;;;;;11.02;8.40;;;6.40;96.70;;;;;;4907185;29;20064;-87
2020/12/21 05:48:53;;;;;;;11.25;8.90;;;6.40;96.70;;;;;;4921700;29;20044;-87
2020/12/21 05:51:22;;;;;;;12.50;8.02;;;6.30;96.70;;;;;;4919162;29;20048;-87
2020/12/21 05:53:52;;;;;;;11.60;8.73;;;6.30;96.70;;;;;;4936390;28;20353;-86
2020/12/21 05:56:21;;;;;;;11.10;8.55;;;6.30;96.70;;;;;;4911991;29;20562;-87
2020/12/21 05:58:49;;;;;;;12.77;8.95;;;6.30;96.70;;;;;;4917104;29;20040;-87
2020/12/21 06:01:17;;;;;;;19.30;12.20;;;6.20;96.70;;;;;;4905381;29;20062;-88
2020/12/21 06:03:46;;;;;;;30.23;19.88;;;6.20;96.70;;;;;;4923197;29;20044;-85
2020/12/21 06:06:16;;;;;;;25.98;17.63;;;6.20;96.70;;;;;;4905412;29;20115;-87
2020/12/21 06:08:45;;;;;;;15.10;12.00;;;6.10;96.70;;;;;;4928538;29;20111;-87
2020/12/21 06:11:16;;;;;;;14.13;9.93;;;6.10;96.70;;;;;;4935868;28;20403;-86
2020/12/21 06:13:52;;;;;;;11.57;8.27;;;6.10;96.70;;;;;;4938622;28;20067;-87
2020/12/21 06:16:20;;;;;;;11.75;8.40;;;6.10;96.70;;;;;;4936607;28;20044;-87
2020/12/21 06:19:03;;;;;;;9.57;7.15;;;6.10;96.70;;;;;;4919380;29;20048;-87
2020/12/21 06:21:32;;;;;;;9.93;7.55;;;6.10;96.70;;;;;;4905321;29;20054;-87
2020/12/21 06:24:00;;;;;;;11.95;7.55;;;6.20;96.70;;;;;;4904810;29;20501;-85
2020/12/21 06:26:32;;;;;;;9.07;7.13;;;6.20;96.70;;;;;;4904986;29;21191;-87
2020/12/21 06:29:00;;;;;;;12.43;7.97;;;6.20;96.70;;;;;;4906440;29;20248;-86
2020/12/21 06:31:37;;;;;;;10.55;7.40;;;6.30;96.70;;;;;;4907306;29;20542;-87
2020/12/21 06:34:05;;;;;;;9.73;7.40;;;6.20;96.70;;;;;;4904388;29;20056;-87
2020/12/21 06:36:34;;;;;;;9.93;7.65;;;6.10;96.70;;;;;;4903571;29;20040;-88
2020/12/21 06:39:03;;;;;;;10.52;7.32;;;6.10;96.70;;;;;;4905672;29;20055;-86
2020/12/21 06:41:30;;;;;;;9.23;6.70;;;6.00;96.70;;;;;;4891215;29;20067;-87
2020/12/21 06:44:05;;;;;;;9.68;7.00;;;6.00;96.70;;;;;;4907239;29;20491;-87
2020/12/21 06:46:34;;;;;;;9.23;6.95;;;6.00;96.70;;;;;;4922392;29;20123;-87
2020/12/21 06:49:07;;;;;;;8.27;7.07;;;6.00;96.70;;;;;;4917952;29;20048;-87
2020/12/21 06:51:36;;;;;;;13.85;7.63;;;6.00;96.70;;;;;;4906835;29;20072;-86
2020/12/21 06:54:05;;;;;;;9.65;7.15;;;5.90;96.70;;;;;;4907392;29;20044;-86
2020/12/21 06:56:32;;;;;;;10.25;7.38;;;5.80;96.70;;;;;;4917469;29;20072;-86
2020/12/21 06:59:00;;;;;;;12.07;8.02;;;5.80;96.70;;;;;;4920855;29;20092;-86
2020/12/21 07:01:28;;;;;;;10.02;8.05;;;5.90;96.70;;;;;;4937785;28;20075;-92
2020/12/21 07:03:56;;;;;;;12.15;9.43;;;5.80;96.70;;;;;;4908457;29;20049;-86
2020/12/21 07:06:23;;;;;;;12.82;9.10;;;5.90;96.70;;;;;;4941809;29;20321;-89
2020/12/21 07:08:57;;;;;;;11.55;8.50;;;5.90;96.70;;;;;;4912811;29;20043;-91
2020/12/21 07:11:24;;;;;;;11.32;8.70;;;5.80;96.70;;;;;;4933251;29;20056;-92
2020/12/21 07:13:51;;;;;;;14.10;8.30;;;5.80;96.70;;;;;;4919302;29;20055;-88
2020/12/21 07:16:20;;;;;;;10.73;8.25;;;5.70;96.70;;;;;;4910093;29;20058;-93
2020/12/21 07:18:48;;;;;;;9.90;8.30;;;5.80;96.70;;;;;;4911315;29;20610;-91
2020/12/21 07:21:16;;;;;;;11.45;7.90;;;5.80;96.70;;;;;;4931742;29;20051;-90
2020/12/21 07:23:45;;;;;;;8.90;7.70;;;5.80;96.70;;;;;;4932036;29;20044;-90
2020/12/21 07:26:16;;;;;;;13.38;8.30;;;5.80;96.70;;;;;;4914069;29;20075;-90
2020/12/21 07:28:45;;;;;;;12.63;9.02;;;5.80;96.70;;;;;;4913405;29;20103;-87
2020/12/21 07:31:15;;;;;;;10.23;7.97;;;5.80;96.70;;;;;;4911229;29;20047;-83
2020/12/21 07:33:53;;;;;;;11.68;8.73;;;5.80;96.70;;;;;;4928675;29;20415;-84
2020/12/21 07:36:22;;;;;;;10.10;8.30;;;5.90;96.70;;;;;;4924779;29;20059;-88
2020/12/21 07:38:50;;;;;;;11.10;8.27;;;6.00;96.70;;;;;;4922662;29;20434;-85
2020/12/21 07:41:23;;;;;;;10.90;8.43;;;6.10;96.70;;;;;;4924183;29;20094;-85
2020/12/21 07:44:01;;;;;;;12.98;8.95;;;6.10;96.70;;;;;;4939877;29;20413;-84
2020/12/21 07:46:37;;;;;;;9.00;7.63;;;6.10;96.70;;;;;;4920341;29;20052;-85
2020/12/21 07:49:06;;;;;;;17.88;9.68;;;6.20;96.70;;;;;;4915216;29;20044;-84
2020/12/21 07:51:35;;;;;;;12.13;9.10;;;6.30;96.70;;;;;;4901422;29;20518;-84
2020/12/21 07:54:02;;;;;;;13.15;8.63;;;6.30;96.70;;;;;;4923815;29;20052;-84
2020/12/21 07:56:30;;;;;;;10.05;7.68;;;6.40;96.70;;;;;;4905179;29;20045;-90
2020/12/21 07:58:57;;;;;;;9.20;7.80;;;6.40;96.70;;;;;;4938835;28;20075;-88
2020/12/21 08:01:25;;;;;;;12.20;8.02;;;6.50;96.70;;;;;;4906793;29;20594;-87
2020/12/21 08:03:53;;;;;;;12.65;8.70;;;6.60;96.70;;;;;;4940637;28;20048;-86
2020/12/21 08:06:25;;;;;;;11.68;9.02;;;6.60;96.70;;;;;;4923073;29;21156;-86
2020/12/21 08:08:52;;;;;;;11.30;8.35;;;6.60;96.70;;;;;;4939019;28;20048;-86
2020/12/21 08:11:20;;;;;;;12.35;8.80;;;6.70;96.70;;;;;;4892282;29;20099;-87
2020/12/21 08:13:50;;;;;;;10.93;7.82;;;6.70;96.70;;;;;;4913372;29;20158;-86
2020/12/21 08:16:24;;;;;;;11.60;8.52;;;6.80;96.70;;;;;;4941111;28;20047;-85
2020/12/21 08:18:52;;;;;;;12.55;8.93;;;6.70;96.70;;;;;;4924630;29;20079;-85
2020/12/21 08:21:22;;;;;;;10.88;8.18;;;6.80;96.70;;;;;;4911534;29;20044;-86
2020/12/21 08:23:53;;;;;;;9.98;7.57;;;6.90;96.70;;;;;;4928337;29;20926;-86
2020/12/21 08:26:21;;;;;;;10.73;8.38;;;7.00;96.70;;;;;;4926451;29;20044;-85
2020/12/21 08:28:49;;;;;;;11.27;8.88;;;7.00;96.70;;;;;;4909562;29;20040;-85
2020/12/21 08:31:19;;;;;;;10.95;7.63;;;7.10;96.70;;;;;;4922343;29;20092;-86
2020/12/21 08:33:57;;;;;;;10.98;8.60;;;7.10;96.70;;;;;;4914179;29;20056;-86
2020/12/21 08:36:29;;;;;;;11.20;8.98;;;7.20;96.70;;;;;;4937849;28;20051;-86
2020/12/21 08:39:05;;;;;;;13.15;9.45;;;7.30;96.70;;;;;;4921218;29;20242;-88
2020/12/21 08:41:37;;;;;;;11.52;8.63;;;7.40;96.70;;;;;;4929278;29;20074;-89
2020/12/21 08:44:07;;;;;;;12.85;9.15;;;7.50;96.70;;;;;;4923013;29;20155;-90
2020/12/21 08:46:34;;;;;;;13.95;9.32;;;7.60;96.70;;;;;;4911997;29;20115;-92
2020/12/21 08:49:07;;;;;;;18.23;10.57;;;7.70;96.70;;;;;;4910921;29;20147;-92
2020/12/21 08:51:37;;;;;;;14.60;9.10;;;7.80;96.70;;;;;;4923233;29;20046;-88
2020/12/21 08:54:05;;;;;;;10.80;8.57;;;7.90;96.70;;;;;;4911209;29;20622;-87
2020/12/21 08:56:32;;;;;;;13.90;8.70;;;7.90;96.70;;;;;;4912137;29;20047;-87
2020/12/21 08:58:59;;;;;;;15.80;8.82;;;7.90;96.70;;;;;;4925333;29;20039;-86
2020/12/21 09:01:27;;;;;;;10.98;8.65;;;8.00;96.70;;;;;;4895252;29;20040;-86
2020/12/21 09:03:54;;;;;;;12.32;8.13;;;8.10;96.70;;;;;;4926312;29;20358;-86
2020/12/21 09:06:25;;;;;;;11.65;7.68;;;8.20;96.70;;;;;;4927231;29;20111;-87
2020/12/21 09:08:57;;;;;;;9.75;8.45;;;8.30;96.70;;;;;;4908356;29;20396;-88
2020/12/21 09:11:25;;;;;;;9.93;8.38;;;8.40;96.70;;;;;;4911232;29;20095;-86
2020/12/21 09:13:53;;;;;;;12.88;8.52;;;8.40;96.70;;;;;;4913214;29;20040;-87
2020/12/21 09:16:29;;;;;;;12.45;9.18;;;8.50;96.70;;;;;;4918255;29;20052;-85
2020/12/21 09:18:59;;;;;;;13.30;9.77;;;8.50;96.70;;;;;;4942062;28;20072;-86
2020/12/21 09:21:28;;;;;;;12.07;9.10;;;8.70;96.70;;;;;;4909078;29;20051;-85
2020/12/21 09:23:58;;;;;;;16.08;10.65;;;8.70;96.70;;;;;;4928859;29;20096;-86
2020/12/21 09:26:26;;;;;;;14.60;10.48;;;8.80;96.70;;;;;;4939064;28;20044;-85
2020/12/21 09:28:54;;;;;;;13.52;9.85;;;8.80;96.70;;;;;;4903099;29;20594;-86
2020/12/21 09:31:22;;;;;;;14.90;10.60;;;8.80;96.70;;;;;;4912229;29;20047;-87
2020/12/21 09:33:52;;;;;;;13.48;9.90;;;8.90;96.70;;;;;;4896800;29;20056;-87
2020/12/21 09:36:20;;;;;;;17.63;10.68;;;8.90;96.70;;;;;;4892349;29;20048;-85
2020/12/21 09:38:48;;;;;;;13.13;10.48;;;9.00;96.70;;;;;;4911285;29;20044;-86
2020/12/21 09:41:18;;;;;;;12.23;10.32;;;9.10;96.70;;;;;;4902916;29;20055;-89
2020/12/21 09:43:46;;;;;;;12.18;10.35;;;9.20;96.70;;;;;;4920409;29;20122;-86
2020/12/21 09:46:17;;;;;;;13.32;10.75;;;9.30;96.70;;;;;;4910567;29;20044;-85
2020/12/21 09:48:44;;;;;;;12.98;10.20;;;9.30;96.70;;;;;;4891697;29;20048;-84
2020/12/21 09:51:12;;;;;;;13.55;10.80;;;9.40;96.70;;;;;;4901053;29;20119;-81
2020/12/21 09:53:40;;;;;;;15.45;11.27;;;9.50;96.70;;;;;;4907348;29;20519;-86
2020/12/21 09:56:08;;;;;;;14.90;10.88;;;9.50;96.70;;;;;;4919518;29;20036;-83
2020/12/21 09:58:35;;;;;;;26.65;19.25;;;9.60;96.70;;;;;;4919497;29;20052;-82
2020/12/21 10:01:03;;;;;;;21.48;16.48;;;9.70;96.70;;;;;;4902869;29;20126;-84
2020/12/21 10:03:30;;;;;;;22.27;17.13;;;9.80;96.70;;;;;;4905227;29;20621;-83
2020/12/21 10:05:58;;;;;;;16.27;13.05;;;9.90;96.70;;;;;;4905313;29;20055;-83
2020/12/21 10:08:26;;;;;;;18.30;14.68;;;10.00;96.70;;;;;;4918182;29;20048;-83
2020/12/21 10:10:53;;;;;;;15.65;13.40;;;10.10;96.70;;;;;;4915681;29;20066;-83
2020/12/21 10:13:20;;;;;;;17.40;14.27;;;10.20;96.70;;;;;;4904264;29;20044;-84
2020/12/21 10:15:47;;;;;;;15.43;11.98;;;10.30;96.70;;;;;;4916416;29;20047;-82
2020/12/21 10:18:14;;;;;;;15.10;12.30;;;10.40;96.70;;;;;;4903354;29;20492;-84
2020/12/21 10:20:43;;;;;;;12.68;11.35;;;10.40;96.70;;;;;;4906442;29;20067;-83
2020/12/21 10:23:12;;;;;;;12.25;10.93;;;10.50;96.70;;;;;;4917166;29;20163;-84
2020/12/21 10:25:40;;;;;;;13.57;11.63;;;10.60;96.70;;;;;;4900224;29;20051;-82
2020/12/21 10:28:07;;;;;;;15.20;12.32;;;10.60;96.70;;;;;;4911944;29;20040;-80
2020/12/21 10:30:34;;;;;;;14.07;12.00;;;10.70;96.70;;;;;;4903231;29;20031;-81
2020/12/21 10:33:01;;;;;;;17.35;12.05;;;10.80;96.70;;;;;;4904057;29;20052;-81
2020/12/21 10:35:30;;;;;;;15.85;12.38;;;10.90;96.70;;;;;;4906024;29;20546;-80
2020/12/21 10:37:58;;;;;;;15.27;11.57;;;11.00;96.70;;;;;;4905391;29;20048;-80
2020/12/21 10:40:25;;;;;;;15.55;11.45;;;11.20;96.70;;;;;;4936263;28;20047;-81
2020/12/21 10:42:53;;;;;;;23.40;12.80;;;11.20;96.70;;;;;;4908056;29;20048;-82
2020/12/21 10:45:20;;;;;;;13.93;12.07;;;11.30;96.70;;;;;;4917186;29;20048;-84
2020/12/21 10:47:47;;;;;;;16.92;12.90;;;11.40;96.70;;;;;;4906290;29;20048;-85
2020/12/21 10:50:14;;;;;;;14.55;12.40;;;11.40;96.70;;;;;;4942141;28;20051;-84
2020/12/21 10:52:41;;;;;;;15.07;12.50;;;11.50;96.70;;;;;;4929297;29;20044;-86
2020/12/21 10:55:09;;;;;;;17.08;13.60;;;11.60;96.70;;;;;;4940667;28;20136;-81
2020/12/21 10:57:36;;;;;;;16.25;13.85;;;11.70;96.70;;;;;;4937028;29;20067;-82
2020/12/21 11:00:05;;;;;;;15.00;13.38;;;11.70;96.70;;;;;;4936269;28;20084;-84
2020/12/21 11:02:32;;;;;;;16.38;13.18;;;11.80;96.70;;;;;;4905971;29;20044;-80
2020/12/21 11:04:59;;;;;;;14.25;12.73;;;11.90;96.70;;;;;;4907563;29;20051;-80
2020/12/21 11:07:28;;;;;;;16.38;14.30;;;12.00;96.70;;;;;;4919815;29;20996;-81
2020/12/21 11:10:13;;;;;;;17.50;14.10;;;12.10;96.70;;;;;;4902888;29;20048;-82
2020/12/21 11:12:42;;;;;;;15.88;13.88;;;12.20;96.70;;;;;;4905479;29;20625;-82
2020/12/21 11:15:10;;;;;;;17.55;15.65;;;12.20;96.70;;;;;;4917018;29;20622;-79
2020/12/21 11:17:37;;;;;;;18.25;15.20;;;12.40;96.70;;;;;;4918769;29;20140;-84
2020/12/21 11:20:05;;;;;;;16.42;13.65;;;12.40;96.70;;;;;;4905527;29;20135;-82
2020/12/21 11:22:36;;;;;;;15.30;13.70;;;12.50;96.70;;;;;;4906359;29;20151;-83
2020/12/21 11:25:03;;;;;;;16.30;13.65;;;12.50;96.70;;;;;;4906962;29;20448;-82
2020/12/21 11:27:30;;;;;;;14.07;12.65;;;12.50;96.70;;;;;;4915502;29;20043;-84
2020/12/21 11:29:57;;;;;;;14.15;12.65;;;12.50;96.70;;;;;;4920711;29;20036;-83
2020/12/21 11:32:25;;;;;;;20.60;14.23;;;12.60;96.70;;;;;;4904561;29;20132;-83
2020/12/21 11:34:53;;;;;;;16.95;14.10;;;12.60;96.70;;;;;;4920597;29;20435;-82
2020/12/21 11:37:20;;;;;;;16.48;13.15;;;12.60;96.70;;;;;;4943865;28;20522;-82
2020/12/21 11:39:47;;;;;;;19.55;14.15;;;12.70;96.70;;;;;;4904963;29;20046;-84
2020/12/21 11:42:14;;;;;;;15.90;13.68;;;12.80;96.70;;;;;;4917311;29;20055;-84
2020/12/21 11:44:42;;;;;;;18.10;13.75;;;12.80;96.70;;;;;;4904814;29;20073;-82
2020/12/21 11:47:10;;;;;;;16.75;13.18;;;12.90;96.70;;;;;;4906126;29;20048;-85
2020/12/21 11:49:38;;;;;;;17.27;13.70;;;12.90;96.70;;;;;;4906681;29;20066;-83
2020/12/21 11:52:06;;;;;;;16.75;14.40;;;13.10;96.70;;;;;;4906588;29;20585;-82
2020/12/21 11:54:33;;;;;;;18.52;14.60;;;13.10;96.70;;;;;;4922438;29;20044;-83
2020/12/21 11:57:01;;;;;;;15.70;13.27;;;13.20;96.70;;;;;;4907644;29;20058;-83
2020/12/21 11:59:29;;;;;;;15.05;13.27;;;13.30;96.70;;;;;;4921120;29;20581;-83
2020/12/21 12:01:58;;;;;;;20.02;14.10;;;13.40;96.70;;;;;;4912926;29;20044;-85
2020/12/21 12:04:25;;;;;;;16.48;13.88;;;13.50;96.70;;;;;;4915888;29;20044;-84
2020/12/21 12:06:54;;;;;;;16.70;12.57;;;13.60;96.70;;;;;;4924385;29;20451;-82
2020/12/21 12:09:24;;;;;;;14.57;12.93;;;13.60;96.70;;;;;;4920016;28;20048;-83
2020/12/21 12:11:52;;;;;;;17.00;13.35;;;13.70;96.70;;;;;;4910013;29;20044;-83
2020/12/21 12:14:19;;;;;;;17.00;12.80;;;13.80;96.70;;;;;;4921376;29;20043;-82
2020/12/21 12:16:46;;;;;;;16.95;13.27;;;13.90;96.70;;;;;;4906165;29;20055;-83
2020/12/21 12:19:14;;;;;;;18.70;13.93;;;13.90;96.70;;;;;;4922912;29;20044;-86
2020/12/21 12:21:43;;;;;;;17.50;13.60;;;14.10;96.70;;;;;;4905773;29;20119;-83
2020/12/21 12:24:11;;;;;;;13.82;12.05;;;14.10;96.70;;;;;;4906259;29;20044;-84
2020/12/21 12:26:38;;;;;;;15.85;12.75;;;14.10;96.70;;;;;;4905360;29;20055;-83
2020/12/21 12:29:05;;;;;;;13.93;12.30;;;14.00;96.70;;;;;;4906939;29;20071;-83
2020/12/21 12:31:32;;;;;;;14.77;12.30;;;14.00;96.70;;;;;;4911526;29;20044;-82
2020/12/21 12:33:59;;;;;;;16.00;14.13;;;14.00;96.70;;;;;;4904481;29;20307;-82
2020/12/21 12:36:27;;;;;;;14.90;13.05;;;14.00;96.70;;;;;;4905444;29;20044;-86
2020/12/21 12:38:55;;;;;;;15.10;13.13;;;14.00;96.70;;;;;;4905472;29;20059;-85
2020/12/21 12:41:24;;;;;;;14.57;12.75;;;14.10;96.70;;;;;;4904534;29;20048;-81
2020/12/21 12:43:52;;;;;;;13.52;12.18;;;14.10;96.70;;;;;;4905640;29;20036;-81
2020/12/21 12:46:19;;;;;;;14.15;11.43;;;14.20;96.70;;;;;;4907331;29;20463;-82
2020/12/21 12:48:46;;;;;;;13.60;10.60;;;14.20;96.70;;;;;;4904209;29;20051;-81